Terminal Aerodrome Forecast
Issued by NWS

Home | Current Version | Previous Version | Text Only | Print | Product List | Glossary On
Versions: 1 2 3 4 5 6 7 8 9 10 11 12 13 14
052
FTUS43 KUNR 091730
TAFGCC
TAF
KGCC 091730Z 0918/1018 29012KT P6SM BKN100
     FM100200 26008KT P6SM SCT200
     FM100900 25015KT P6SM FEW200
     FM101600 27011KT P6SM FEW200=

USA.gov is the U.S. government's official web portal to all federal, state and local government web resources and services.